sensor_id;sensor_type;location;lat;lon;timestamp;P1;durP1;ratioP1;P2;durP2;ratioP2
54557;SDS011;40452;50.080;20.040;2022-09-13T04:04:54;8.27;;;4.88;;
54557;SDS011;40452;50.080;20.040;2022-09-13T04:07:21;14.60;;;5.00;;
54557;SDS011;40452;50.080;20.040;2022-09-13T04:09:48;7.28;;;4.63;;
54557;SDS011;40452;50.080;20.040;2022-09-13T04:12:14;7.00;;;4.90;;
54557;SDS011;40452;50.080;20.040;2022-09-13T04:14:41;7.47;;;4.82;;
54557;SDS011;40452;50.080;20.040;2022-09-13T04:17:08;10.50;;;4.70;;
54557;SDS011;40452;50.080;20.040;2022-09-13T04:19:34;6.75;;;4.53;;
54557;SDS011;40452;50.080;20.040;2022-09-13T04:22:00;8.48;;;5.20;;
54557;SDS011;40452;50.080;20.040;2022-09-13T04:24:26;7.05;;;4.10;;
54557;SDS011;40452;50.080;20.040;2022-09-13T04:26:53;7.15;;;4.93;;
54557;SDS011;40452;50.080;20.040;2022-09-13T04:29:19;7.07;;;4.20;;
54557;SDS011;40452;50.080;20.040;2022-09-13T04:31:47;6.18;;;4.10;;
54557;SDS011;40452;50.080;20.040;2022-09-13T04:34:14;6.43;;;4.20;;
54557;SDS011;40452;50.080;20.040;2022-09-13T04:36:41;7.40;;;4.68;;
54557;SDS011;40452;50.080;20.040;2022-09-13T04:39:06;8.45;;;4.43;;
54557;SDS011;40452;50.080;20.040;2022-09-13T04:41:32;7.65;;;4.40;;
54557;SDS011;40452;50.080;20.040;2022-09-13T04:43:58;8.00;;;4.80;;
54557;SDS011;40452;50.080;20.040;2022-09-13T04:46:25;7.38;;;4.55;;
54557;SDS011;40452;50.080;20.040;2022-09-13T04:48:51;7.20;;;4.53;;
54557;SDS011;40452;50.080;20.040;2022-09-13T04:51:17;6.90;;;4.88;;
54557;SDS011;40452;50.080;20.040;2022-09-13T04:53:43;7.13;;;4.45;;
54557;SDS011;40452;50.080;20.040;2022-09-13T04:56:09;5.72;;;4.25;;
54557;SDS011;40452;50.080;20.040;2022-09-13T04:58:37;9.35;;;5.20;;
54557;SDS011;40452;50.080;20.040;2022-09-13T05:01:04;9.27;;;5.00;;
54557;SDS011;40452;50.080;20.040;2022-09-13T05:03:33;10.10;;;5.22;;
54557;SDS011;40452;50.080;20.040;2022-09-13T05:06:01;11.32;;;5.07;;
54557;SDS011;40452;50.080;20.040;2022-09-13T05:08:28;9.80;;;6.10;;
54557;SDS011;40452;50.080;20.040;2022-09-13T05:10:53;11.50;;;5.10;;
54557;SDS011;40452;50.080;20.040;2022-09-13T05:13:19;10.63;;;4.60;;
54557;SDS011;40452;50.080;20.040;2022-09-13T05:15:45;11.35;;;5.22;;
54557;SDS011;40452;50.080;20.040;2022-09-13T05:18:11;12.18;;;6.72;;
54557;SDS011;40452;50.080;20.040;2022-09-13T05:20:36;12.13;;;6.80;;
54557;SDS011;40452;50.080;20.040;2022-09-13T05:23:02;10.15;;;6.72;;
54557;SDS011;40452;50.080;20.040;2022-09-13T05:25:27;10.88;;;6.30;;
54557;SDS011;40452;50.080;20.040;2022-09-13T05:27:53;10.52;;;4.90;;
54557;SDS011;40452;50.080;20.040;2022-09-13T05:30:18;10.32;;;5.43;;
54557;SDS011;40452;50.080;20.040;2022-09-13T05:32:46;9.15;;;5.60;;
54557;SDS011;40452;50.080;20.040;2022-09-13T05:35:11;8.55;;;5.35;;
54557;SDS011;40452;50.080;20.040;2022-09-13T05:37:37;9.35;;;5.22;;
54557;SDS011;40452;50.080;20.040;2022-09-13T05:40:03;10.40;;;5.63;;
54557;SDS011;40452;50.080;20.040;2022-09-13T05:42:29;12.13;;;6.20;;
54557;SDS011;40452;50.080;20.040;2022-09-13T05:44:54;8.48;;;5.50;;
54557;SDS011;40452;50.080;20.040;2022-09-13T05:47:21;14.18;;;5.65;;
54557;SDS011;40452;50.080;20.040;2022-09-13T05:49:46;12.13;;;5.25;;
54557;SDS011;40452;50.080;20.040;2022-09-13T05:52:12;12.50;;;5.28;;
54557;SDS011;40452;50.080;20.040;2022-09-13T05:54:37;11.32;;;5.53;;
54557;SDS011;40452;50.080;20.040;2022-09-13T05:57:03;8.48;;;5.45;;
54557;SDS011;40452;50.080;20.040;2022-09-13T05:59:29;8.57;;;4.82;;
54557;SDS011;40452;50.080;20.040;2022-09-13T06:01:55;9.02;;;5.53;;
54557;SDS011;40452;50.080;20.040;2022-09-13T06:04:22;6.60;;;4.53;;
54557;SDS011;40452;50.080;20.040;2022-09-13T06:06:47;7.28;;;4.88;;
54557;SDS011;40452;50.080;20.040;2022-09-13T06:09:13;10.48;;;4.65;;
54557;SDS011;40452;50.080;20.040;2022-09-13T06:11:38;10.10;;;4.80;;
54557;SDS011;40452;50.080;20.040;2022-09-13T06:14:04;11.07;;;4.75;;
54557;SDS011;40452;50.080;20.040;2022-09-13T06:16:30;9.70;;;4.95;;
54557;SDS011;40452;50.080;20.040;2022-09-13T06:18:56;11.85;;;5.07;;
54557;SDS011;40452;50.080;20.040;2022-09-13T06:21:22;7.10;;;4.68;;
54557;SDS011;40452;50.080;20.040;2022-09-13T06:23:49;10.27;;;4.80;;
54557;SDS011;40452;50.080;20.040;2022-09-13T06:26:17;7.22;;;5.13;;
54557;SDS011;40452;50.080;20.040;2022-09-13T06:28:51;12.40;;;4.65;;
54557;SDS011;40452;50.080;20.040;2022-09-13T06:31:19;9.77;;;5.05;;
54557;SDS011;40452;50.080;20.040;2022-09-13T06:33:46;8.45;;;4.78;;
54557;SDS011;40452;50.080;20.040;2022-09-13T06:36:13;11.20;;;5.22;;
54557;SDS011;40452;50.080;20.040;2022-09-13T06:38:44;8.20;;;4.82;;
54557;SDS011;40452;50.080;20.040;2022-09-13T06:41:12;8.38;;;4.90;;
54557;SDS011;40452;50.080;20.040;2022-09-13T06:43:39;13.88;;;4.85;;
54557;SDS011;40452;50.080;20.040;2022-09-13T06:46:07;7.82;;;4.55;;
54557;SDS011;40452;50.080;20.040;2022-09-13T06:48:35;10.02;;;4.72;;
54557;SDS011;40452;50.080;20.040;2022-09-13T06:51:03;6.82;;;4.55;;
54557;SDS011;40452;50.080;20.040;2022-09-13T06:53:30;9.43;;;5.28;;
54557;SDS011;40452;50.080;20.040;2022-09-13T06:56:02;6.57;;;4.80;;
54557;SDS011;40452;50.080;20.040;2022-09-13T06:58:32;13.25;;;5.00;;
54557;SDS011;40452;50.080;20.040;2022-09-13T07:03:34;10.95;;;4.80;;
54557;SDS011;40452;50.080;20.040;2022-09-13T07:06:05;7.85;;;5.15;;
54557;SDS011;40452;50.080;20.040;2022-09-13T07:08:41;7.30;;;4.80;;
54557;SDS011;40452;50.080;20.040;2022-09-13T07:11:09;8.00;;;4.72;;
54557;SDS011;40452;50.080;20.040;2022-09-13T07:13:36;7.38;;;4.68;;
54557;SDS011;40452;50.080;20.040;2022-09-13T07:16:06;7.82;;;4.38;;
54557;SDS011;40452;50.080;20.040;2022-09-13T07:18:35;7.55;;;4.55;;
54557;SDS011;40452;50.080;20.040;2022-09-13T07:21:05;9.50;;;4.97;;
54557;SDS011;40452;50.080;20.040;2022-09-13T07:23:33;7.65;;;4.57;;
54557;SDS011;40452;50.080;20.040;2022-09-13T07:26:00;12.27;;;4.72;;
54557;SDS011;40452;50.080;20.040;2022-09-13T07:28:29;8.57;;;4.28;;
54557;SDS011;40452;50.080;20.040;2022-09-13T07:31:06;8.02;;;4.55;;
54557;SDS011;40452;50.080;20.040;2022-09-13T13:31:07;5.53;;;3.95;;
54557;SDS011;40452;50.080;20.040;2022-09-13T13:33:47;5.20;;;3.75;;
54557;SDS011;40452;50.080;20.040;2022-09-13T13:36:25;5.50;;;3.75;;
54557;SDS011;40452;50.080;20.040;2022-09-13T13:38:54;4.93;;;3.17;;
54557;SDS011;40452;50.080;20.040;2022-09-13T13:43:58;8.00;;;3.85;;
54557;SDS011;40452;50.080;20.040;2022-09-13T13:46:28;11.00;;;4.90;;
54557;SDS011;40452;50.080;20.040;2022-09-13T13:48:55;10.75;;;4.50;;
54557;SDS011;40452;50.080;20.040;2022-09-13T13:51:41;7.43;;;4.05;;
54557;SDS011;40452;50.080;20.040;2022-09-13T13:54:27;7.70;;;3.97;;
54557;SDS011;40452;50.080;20.040;2022-09-13T13:56:54;6.63;;;3.97;;
54557;SDS011;40452;50.080;20.040;2022-09-13T13:59:24;6.78;;;3.67;;
54557;SDS011;40452;50.080;20.040;2022-09-13T14:01:55;8.60;;;3.50;;
54557;SDS011;40452;50.080;20.040;2022-09-13T14:07:06;7.00;;;3.60;;
54557;SDS011;40452;50.080;20.040;2022-09-13T14:12:51;8.40;;;3.25;;
54557;SDS011;40452;50.080;20.040;2022-09-13T14:15:24;6.88;;;3.47;;
54557;SDS011;40452;50.080;20.040;2022-09-13T14:18:06;8.10;;;4.07;;
54557;SDS011;40452;50.080;20.040;2022-09-13T14:20:57;10.82;;;4.20;;
54557;SDS011;40452;50.080;20.040;2022-09-13T14:23:24;11.77;;;4.80;;
54557;SDS011;40452;50.080;20.040;2022-09-13T14:25:55;8.48;;;5.00;;
54557;SDS011;40452;50.080;20.040;2022-09-13T14:28:22;10.48;;;5.00;;
54557;SDS011;40452;50.080;20.040;2022-09-13T14:30:51;12.00;;;5.85;;
54557;SDS011;40452;50.080;20.040;2022-09-13T14:33:23;12.05;;;5.75;;
54557;SDS011;40452;50.080;20.040;2022-09-13T14:35:59;9.35;;;5.18;;
54557;SDS011;40452;50.080;20.040;2022-09-13T14:38:28;14.13;;;7.43;;
54557;SDS011;40452;50.080;20.040;2022-09-13T14:41:18;8.63;;;5.32;;
54557;SDS011;40452;50.080;20.040;2022-09-13T14:43:46;7.38;;;5.70;;
54557;SDS011;40452;50.080;20.040;2022-09-13T14:46:15;9.80;;;4.72;;
54557;SDS011;40452;50.080;20.040;2022-09-13T14:48:50;7.47;;;5.03;;
54557;SDS011;40452;50.080;20.040;2022-09-13T14:51:22;13.25;;;6.03;;
54557;SDS011;40452;50.080;20.040;2022-09-13T14:54:37;8.70;;;6.57;;
54557;SDS011;40452;50.080;20.040;2022-09-13T14:56:53;8.48;;;6.13;;
54557;SDS011;40452;50.080;20.040;2022-09-13T14:59:25;8.60;;;4.95;;
54557;SDS011;40452;50.080;20.040;2022-09-13T15:01:57;10.13;;;4.55;;
54557;SDS011;40452;50.080;20.040;2022-09-13T15:04:28;7.07;;;4.43;;
54557;SDS011;40452;50.080;20.040;2022-09-13T15:12:37;6.03;;;3.80;;
54557;SDS011;40452;50.080;20.040;2022-09-13T15:18:05;6.43;;;3.53;;
54557;SDS011;40452;50.080;20.040;2022-09-13T15:20:57;10.18;;;3.90;;
54557;SDS011;40452;50.080;20.040;2022-09-13T15:26:06;6.38;;;3.47;;
54557;SDS011;40452;50.080;20.040;2022-09-13T15:28:55;6.03;;;3.70;;
54557;SDS011;40452;50.080;20.040;2022-09-13T15:31:22;8.68;;;3.55;;
54557;SDS011;40452;50.080;20.040;2022-09-13T15:34:09;4.32;;;3.38;;
54557;SDS011;40452;50.080;20.040;2022-09-13T15:36:40;5.65;;;3.20;;
54557;SDS011;40452;50.080;20.040;2022-09-13T15:41:35;10.07;;;3.47;;
54557;SDS011;40452;50.080;20.040;2022-09-13T15:44:04;5.50;;;3.60;;
54557;SDS011;40452;50.080;20.040;2022-09-13T15:46:31;5.18;;;3.50;;
54557;SDS011;40452;50.080;20.040;2022-09-13T15:49:08;5.45;;;3.50;;
54557;SDS011;40452;50.080;20.040;2022-09-13T15:51:40;5.15;;;3.22;;
54557;SDS011;40452;50.080;20.040;2022-09-13T15:54:10;5.57;;;3.45;;
54557;SDS011;40452;50.080;20.040;2022-09-13T15:59:05;6.20;;;3.40;;
54557;SDS011;40452;50.080;20.040;2022-09-13T16:01:30;8.45;;;3.83;;
54557;SDS011;40452;50.080;20.040;2022-09-13T16:03:56;5.40;;;3.38;;
54557;SDS011;40452;50.080;20.040;2022-09-13T16:06:22;5.57;;;3.50;;
54557;SDS011;40452;50.080;20.040;2022-09-13T16:08:48;4.18;;;3.08;;
54557;SDS011;40452;50.080;20.040;2022-09-13T16:11:13;10.20;;;3.58;;
54557;SDS011;40452;50.080;20.040;2022-09-13T16:13:39;4.88;;;3.10;;
54557;SDS011;40452;50.080;20.040;2022-09-13T16:16:04;4.68;;;2.95;;
54557;SDS011;40452;50.080;20.040;2022-09-13T16:18:30;4.95;;;3.53;;
54557;SDS011;40452;50.080;20.040;2022-09-13T16:20:56;7.10;;;3.42;;
54557;SDS011;40452;50.080;20.040;2022-09-13T16:23:21;4.30;;;3.40;;
54557;SDS011;40452;50.080;20.040;2022-09-13T16:25:48;6.18;;;3.03;;
54557;SDS011;40452;50.080;20.040;2022-09-13T16:28:17;6.10;;;2.95;;
54557;SDS011;40452;50.080;20.040;2022-09-13T16:30:46;5.32;;;3.30;;
54557;SDS011;40452;50.080;20.040;2022-09-13T16:33:12;6.95;;;3.00;;
54557;SDS011;40452;50.080;20.040;2022-09-13T16:35:38;5.70;;;3.22;;
54557;SDS011;40452;50.080;20.040;2022-09-13T16:38:03;6.55;;;3.30;;
54557;SDS011;40452;50.080;20.040;2022-09-13T16:40:29;4.53;;;3.15;;
54557;SDS011;40452;50.080;20.040;2022-09-13T16:42:54;6.10;;;2.90;;
54557;SDS011;40452;50.080;20.040;2022-09-13T16:45:20;5.78;;;2.75;;
54557;SDS011;40452;50.080;20.040;2022-09-13T16:47:46;4.15;;;3.20;;
54557;SDS011;40452;50.080;20.040;2022-09-13T16:50:11;6.13;;;3.13;;
54557;SDS011;40452;50.080;20.040;2022-09-13T16:52:37;4.53;;;3.28;;
54557;SDS011;40452;50.080;20.040;2022-09-13T16:55:03;4.25;;;2.85;;
54557;SDS011;40452;50.080;20.040;2022-09-13T16:57:29;5.28;;;3.10;;
54557;SDS011;40452;50.080;20.040;2022-09-13T16:59:55;10.02;;;3.38;;
54557;SDS011;40452;50.080;20.040;2022-09-13T17:02:22;5.53;;;3.10;;
54557;SDS011;40452;50.080;20.040;2022-09-13T17:04:48;5.53;;;3.33;;
54557;SDS011;40452;50.080;20.040;2022-09-13T17:07:14;6.57;;;3.10;;
54557;SDS011;40452;50.080;20.040;2022-09-13T17:09:40;7.85;;;3.13;;
54557;SDS011;40452;50.080;20.040;2022-09-13T17:12:06;9.07;;;3.30;;
54557;SDS011;40452;50.080;20.040;2022-09-13T17:14:33;4.97;;;3.58;;
54557;SDS011;40452;50.080;20.040;2022-09-13T17:16:59;5.00;;;3.10;;
54557;SDS011;40452;50.080;20.040;2022-09-13T17:19:26;8.02;;;3.25;;
54557;SDS011;40452;50.080;20.040;2022-09-13T17:21:55;5.97;;;3.28;;
54557;SDS011;40452;50.080;20.040;2022-09-13T17:24:22;8.45;;;3.08;;
54557;SDS011;40452;50.080;20.040;2022-09-13T17:26:48;4.85;;;3.00;;
54557;SDS011;40452;50.080;20.040;2022-09-13T17:29:13;6.00;;;3.15;;
54557;SDS011;40452;50.080;20.040;2022-09-13T17:31:39;5.75;;;3.17;;
54557;SDS011;40452;50.080;20.040;2022-09-13T17:34:07;6.90;;;3.63;;
54557;SDS011;40452;50.080;20.040;2022-09-13T17:36:33;7.70;;;3.47;;
54557;SDS011;40452;50.080;20.040;2022-09-13T17:38:59;7.30;;;3.92;;
54557;SDS011;40452;50.080;20.040;2022-09-13T17:41:24;8.77;;;3.55;;
54557;SDS011;40452;50.080;20.040;2022-09-13T17:43:50;5.88;;;3.10;;
54557;SDS011;40452;50.080;20.040;2022-09-13T17:46:18;11.65;;;3.63;;
54557;SDS011;40452;50.080;20.040;2022-09-13T17:48:46;8.98;;;3.65;;
54557;SDS011;40452;50.080;20.040;2022-09-13T17:51:12;4.93;;;3.25;;
54557;SDS011;40452;50.080;20.040;2022-09-13T17:53:41;7.10;;;3.92;;
54557;SDS011;40452;50.080;20.040;2022-09-13T17:56:10;9.40;;;3.90;;
54557;SDS011;40452;50.080;20.040;2022-09-13T17:58:36;6.10;;;3.55;;
54557;SDS011;40452;50.080;20.040;2022-09-13T18:01:06;7.65;;;4.07;;
54557;SDS011;40452;50.080;20.040;2022-09-13T18:03:33;9.68;;;3.80;;
54557;SDS011;40452;50.080;20.040;2022-09-13T18:06:00;8.18;;;3.90;;
54557;SDS011;40452;50.080;20.040;2022-09-13T18:08:28;6.80;;;4.28;;
54557;SDS011;40452;50.080;20.040;2022-09-13T18:11:02;9.27;;;4.10;;
54557;SDS011;40452;50.080;20.040;2022-09-13T18:13:38;10.90;;;4.20;;
54557;SDS011;40452;50.080;20.040;2022-09-13T18:16:12;7.75;;;4.60;;
54557;SDS011;40452;50.080;20.040;2022-09-13T18:18:40;10.70;;;4.93;;
54557;SDS011;40452;50.080;20.040;2022-09-13T18:21:06;8.30;;;4.50;;
54557;SDS011;40452;50.080;20.040;2022-09-13T18:23:32;15.00;;;5.00;;
54557;SDS011;40452;50.080;20.040;2022-09-13T18:25:59;11.82;;;4.95;;
54557;SDS011;40452;50.080;20.040;2022-09-13T18:28:26;8.57;;;4.38;;
54557;SDS011;40452;50.080;20.040;2022-09-13T18:30:52;8.70;;;4.15;;
54557;SDS011;40452;50.080;20.040;2022-09-13T18:33:19;11.52;;;4.78;;
54557;SDS011;40452;50.080;20.040;2022-09-13T18:35:56;7.32;;;4.22;;
54557;SDS011;40452;50.080;20.040;2022-09-13T18:38:23;11.32;;;4.82;;
54557;SDS011;40452;50.080;20.040;2022-09-13T18:41:11;9.55;;;4.07;;
54557;SDS011;40452;50.080;20.040;2022-09-13T18:43:41;9.20;;;4.82;;
54557;SDS011;40452;50.080;20.040;2022-09-13T18:46:10;8.43;;;4.30;;
54557;SDS011;40452;50.080;20.040;2022-09-13T18:48:38;10.48;;;4.20;;
54557;SDS011;40452;50.080;20.040;2022-09-13T18:51:07;7.45;;;4.55;;
54557;SDS011;40452;50.080;20.040;2022-09-13T18:53:34;7.32;;;4.07;;
54557;SDS011;40452;50.080;20.040;2022-09-13T18:56:04;8.05;;;4.28;;
54557;SDS011;40452;50.080;20.040;2022-09-13T18:58:32;7.97;;;4.18;;
54557;SDS011;40452;50.080;20.040;2022-09-13T19:01:03;7.45;;;4.22;;
54557;SDS011;40452;50.080;20.040;2022-09-13T19:03:30;7.32;;;4.70;;
54557;SDS011;40452;50.080;20.040;2022-09-13T19:08:39;8.45;;;4.20;;
54557;SDS011;40452;50.080;20.040;2022-09-13T19:11:05;9.48;;;4.30;;
54557;SDS011;40452;50.080;20.040;2022-09-13T19:13:32;9.63;;;4.03;;
54557;SDS011;40452;50.080;20.040;2022-09-13T19:15:58;10.20;;;4.28;;
54557;SDS011;40452;50.080;20.040;2022-09-13T19:18:25;7.00;;;3.83;;
54557;SDS011;40452;50.080;20.040;2022-09-13T19:20:51;9.07;;;4.20;;
54557;SDS011;40452;50.080;20.040;2022-09-13T19:23:24;5.85;;;3.75;;
54557;SDS011;40452;50.080;20.040;2022-09-13T19:25:49;6.88;;;4.10;;
54557;SDS011;40452;50.080;20.040;2022-09-13T19:28:15;6.97;;;4.30;;
54557;SDS011;40452;50.080;20.040;2022-09-13T19:30:40;6.90;;;3.80;;
54557;SDS011;40452;50.080;20.040;2022-09-13T19:33:06;7.53;;;4.15;;
54557;SDS011;40452;50.080;20.040;2022-09-13T19:35:33;7.25;;;3.60;;
54557;SDS011;40452;50.080;20.040;2022-09-13T19:38:00;7.82;;;3.78;;
54557;SDS011;40452;50.080;20.040;2022-09-13T19:40:25;11.20;;;4.25;;
54557;SDS011;40452;50.080;20.040;2022-09-13T19:42:51;8.88;;;3.92;;
54557;SDS011;40452;50.080;20.040;2022-09-13T19:45:17;5.40;;;4.03;;
54557;SDS011;40452;50.080;20.040;2022-09-13T19:47:43;6.38;;;3.47;;
54557;SDS011;40452;50.080;20.040;2022-09-13T19:50:10;9.05;;;3.92;;
54557;SDS011;40452;50.080;20.040;2022-09-13T19:52:36;7.63;;;3.75;;
54557;SDS011;40452;50.080;20.040;2022-09-13T19:55:01;9.07;;;4.10;;
54557;SDS011;40452;50.080;20.040;2022-09-13T19:57:26;7.75;;;3.30;;
54557;SDS011;40452;50.080;20.040;2022-09-13T19:59:52;5.35;;;3.65;;
54557;SDS011;40452;50.080;20.040;2022-09-13T20:02:19;5.57;;;3.47;;
54557;SDS011;40452;50.080;20.040;2022-09-13T20:04:45;6.32;;;3.42;;
54557;SDS011;40452;50.080;20.040;2022-09-13T20:07:11;6.85;;;3.50;;
54557;SDS011;40452;50.080;20.040;2022-09-13T20:09:38;8.60;;;3.58;;
54557;SDS011;40452;50.080;20.040;2022-09-13T20:12:05;5.18;;;3.47;;
54557;SDS011;40452;50.080;20.040;2022-09-13T20:14:31;6.93;;;3.75;;
54557;SDS011;40452;50.080;20.040;2022-09-13T20:16:56;7.32;;;4.00;;
54557;SDS011;40452;50.080;20.040;2022-09-13T20:19:22;5.15;;;3.60;;
54557;SDS011;40452;50.080;20.040;2022-09-13T20:21:48;7.60;;;3.47;;
54557;SDS011;40452;50.080;20.040;2022-09-13T20:24:14;6.55;;;4.00;;
54557;SDS011;40452;50.080;20.040;2022-09-13T20:26:40;6.00;;;3.70;;
54557;SDS011;40452;50.080;20.040;2022-09-13T20:29:06;7.22;;;3.85;;
54557;SDS011;40452;50.080;20.040;2022-09-13T20:31:33;6.70;;;4.10;;
54557;SDS011;40452;50.080;20.040;2022-09-13T20:34:00;6.35;;;3.90;;
54557;SDS011;40452;50.080;20.040;2022-09-13T20:36:28;6.43;;;4.03;;
54557;SDS011;40452;50.080;20.040;2022-09-13T20:38:55;6.70;;;4.30;;
54557;SDS011;40452;50.080;20.040;2022-09-13T20:41:21;6.97;;;4.10;;
54557;SDS011;40452;50.080;20.040;2022-09-13T20:43:48;9.40;;;4.70;;
54557;SDS011;40452;50.080;20.040;2022-09-13T20:46:14;10.85;;;4.60;;
54557;SDS011;40452;50.080;20.040;2022-09-13T20:48:40;9.68;;;4.78;;
54557;SDS011;40452;50.080;20.040;2022-09-13T20:51:09;8.85;;;4.43;;
54557;SDS011;40452;50.080;20.040;2022-09-13T20:53:37;7.20;;;4.43;;
54557;SDS011;40452;50.080;20.040;2022-09-13T20:56:13;7.82;;;4.65;;
54557;SDS011;40452;50.080;20.040;2022-09-13T20:58:40;7.35;;;4.28;;
54557;SDS011;40452;50.080;20.040;2022-09-13T21:01:08;6.25;;;4.30;;
54557;SDS011;40452;50.080;20.040;2022-09-13T21:06:07;6.05;;;4.30;;
54557;SDS011;40452;50.080;20.040;2022-09-13T21:08:34;11.35;;;4.57;;
54557;SDS011;40452;50.080;20.040;2022-09-13T21:11:07;6.18;;;4.05;;
54557;SDS011;40452;50.080;20.040;2022-09-13T21:13:36;6.70;;;4.13;;
54557;SDS011;40452;50.080;20.040;2022-09-13T21:16:04;5.57;;;4.00;;
54557;SDS011;40452;50.080;20.040;2022-09-13T21:18:32;8.23;;;3.92;;
54557;SDS011;40452;50.080;20.040;2022-09-13T21:20:59;7.28;;;4.32;;
54557;SDS011;40452;50.080;20.040;2022-09-13T21:23:26;6.53;;;4.25;;
54557;SDS011;40452;50.080;20.040;2022-09-13T21:25:54;6.35;;;3.97;;
54557;SDS011;40452;50.080;20.040;2022-09-13T21:28:20;7.68;;;4.03;;
54557;SDS011;40452;50.080;20.040;2022-09-13T21:30:55;5.70;;;3.70;;
54557;SDS011;40452;50.080;20.040;2022-09-13T21:33:22;5.30;;;3.72;;
54557;SDS011;40452;50.080;20.040;2022-09-13T21:35:48;5.07;;;3.70;;
54557;SDS011;40452;50.080;20.040;2022-09-13T21:38:14;7.20;;;3.80;;
54557;SDS011;40452;50.080;20.040;2022-09-13T21:40:39;6.00;;;3.60;;
54557;SDS011;40452;50.080;20.040;2022-09-13T21:43:05;6.88;;;4.05;;
54557;SDS011;40452;50.080;20.040;2022-09-13T21:45:30;5.70;;;3.95;;
54557;SDS011;40452;50.080;20.040;2022-09-13T21:47:56;6.22;;;3.47;;
54557;SDS011;40452;50.080;20.040;2022-09-13T21:50:21;4.78;;;3.42;;
54557;SDS011;40452;50.080;20.040;2022-09-13T21:52:47;7.63;;;3.88;;
54557;SDS011;40452;50.080;20.040;2022-09-13T21:55:12;5.65;;;3.70;;
54557;SDS011;40452;50.080;20.040;2022-09-13T21:57:38;5.95;;;3.70;;
54557;SDS011;40452;50.080;20.040;2022-09-13T22:00:04;5.50;;;3.50;;
54557;SDS011;40452;50.080;20.040;2022-09-13T22:02:30;6.18;;;3.67;;
54557;SDS011;40452;50.080;20.040;2022-09-13T22:04:56;5.65;;;3.50;;
54557;SDS011;40452;50.080;20.040;2022-09-13T22:07:22;5.47;;;3.58;;
54557;SDS011;40452;50.080;20.040;2022-09-13T22:09:47;6.15;;;3.30;;
54557;SDS011;40452;50.080;20.040;2022-09-13T22:12:13;5.05;;;3.67;;
54557;SDS011;40452;50.080;20.040;2022-09-13T22:14:38;6.35;;;3.42;;
54557;SDS011;40452;50.080;20.040;2022-09-13T22:17:04;6.05;;;3.97;;
54557;SDS011;40452;50.080;20.040;2022-09-13T22:19:29;4.85;;;3.40;;
54557;SDS011;40452;50.080;20.040;2022-09-13T22:21:56;6.82;;;4.13;;
54557;SDS011;40452;50.080;20.040;2022-09-13T22:24:24;6.35;;;3.25;;
54557;SDS011;40452;50.080;20.040;2022-09-13T22:26:52;8.60;;;3.60;;
54557;SDS011;40452;50.080;20.040;2022-09-13T22:29:19;7.60;;;3.30;;
54557;SDS011;40452;50.080;20.040;2022-09-13T22:31:45;4.80;;;3.35;;
54557;SDS011;40452;50.080;20.040;2022-09-13T22:34:13;5.53;;;3.50;;
54557;SDS011;40452;50.080;20.040;2022-09-13T22:36:41;6.55;;;3.42;;
54557;SDS011;40452;50.080;20.040;2022-09-13T22:39:09;6.40;;;3.53;;
54557;SDS011;40452;50.080;20.040;2022-09-13T22:41:35;5.05;;;3.35;;
54557;SDS011;40452;50.080;20.040;2022-09-13T22:44:01;5.85;;;3.38;;
